Jamestown, Michigan
Current Conditions -  °F | °C
As of 8:53 AM on Monday 24 Nov 2014 (Local Time) from KBIV Reporting Station
Light Rain Light Rain  
Wind Chill: 50°   Ceiling: 400
Heat Index: 50°   Visibility: 2mi
Dew Point: 48°   Wind: 9mph
Humidity: 93%   Direction: 220°SW
Pressure: 29.07"   Gusts: NA
Location:  42.83°N, 85.84°W
Report Text: KBIV 241353Z AUTO 22008KT 2SM -RA BR OVC004 10/09 A2907 RMK AO2 RAB15 SLP826 P0002 T01000089
Loading
Personal Weather Stations






























Interactive Weather Map New forecast layout! Learn more

10-Day Weather Forecast

Advertisements
Track Severe Weather on mobile